ROTAER D-AMDT 45/18 Ver Mudanças

Cacoal ( SSKW ) / CACOAL, RO 11 29 44S/061 27 03W
AD PUB UTC-4 VFR L21 , L26 249 (817)

16 - L12 - ( 2100x45 ASPH 31/F/A/X/T L14 , L15 ) - L12 - 34

SBAZ (CINDACTA 4)
CMB- PF TF

RMK -

HORÁRIO DE FUNCIONAMENTO
  1. Balizamento noturno HR SER SS-2200. Demais HR O/R antecedência MNM 2 HR pelo TEL (69) 3441-0390.
TEMP (3)
INFOTEMP AZ1087M/20
AIS HR SER DLY 1000-2200 INSTL

Duração: 14/07/20 10:00 a 10/10/20 22:00 UTC | Divulgação: 12/07/2020 17:40

INFOTEMP AZ1086M/20
MET CMA (1 A 3) HR SER DLY 1000-2200 INSTL

Duração: 14/07/20 10:00 a 10/10/20 22:00 UTC | Divulgação: 12/07/2020 17:38

INFOTEMP AZ1085M/20
AFIS CACOAL FREQ 131.100MHZ HR SER DLY 1000-2200 INSTL

Duração: 14/07/20 10:00 a 10/10/20 22:00 UTC | Divulgação: 12/07/2020 17:36


Suplementos AIP (0)

NOTAM (1)

OTR

Z1005/20 N 31/07/2020 13:58
ZONA DE INFORMACAO DE VOO (FIZ CACOAL) DESDE 110245S/0612531W
LIGADO POR UM ARCO DE SENTIDO HORARIO DE 27NM DE RAIO COM CENTRO
EM 112944S/0612703W TIL 111905S/0615219W PARA O PONTO
DE ORIGEM CLASSE GOLF ACT
REF: AIP BRASIL ENR 2.1
AIP MAP ENRC L9


Nascer/Por do Sol

10:18

22:02


METAR

141000Z 26004KT 8000 NSC 22/21 Q1009=

TAF


Cartas (0)


Rotas Preferenciais (0)